createdAt,value
2019-02-11T00:09:55.992Z,83
2019-02-11T00:19:59.395Z,84
2019-02-11T00:30:02.784Z,84.3
2019-02-11T00:40:06.240Z,84.3
2019-02-11T00:50:09.680Z,83.8
2019-02-11T01:00:13.090Z,84.4
2019-02-11T01:10:16.559Z,83.6
2019-02-11T01:20:19.989Z,82.6
2019-02-11T01:30:23.411Z,82.1
2019-02-11T01:40:26.809Z,83.4
2019-02-11T01:50:30.238Z,83.9
2019-02-11T02:00:33.686Z,85.2
2019-02-11T02:10:37.129Z,84.2
2019-02-11T02:20:40.569Z,82.7
2019-02-11T02:30:44.011Z,80.9
2019-02-11T02:40:47.449Z,78.6
2019-02-11T02:50:50.901Z,79.1
2019-02-11T03:00:54.412Z,77.7
2019-02-11T03:10:57.847Z,77.5
2019-02-11T03:21:01.318Z,77.8
2019-02-11T03:31:04.774Z,77.6
2019-02-11T03:41:08.225Z,78.5
2019-02-11T03:51:11.658Z,77.5
2019-02-11T04:01:15.111Z,76.9
2019-02-11T04:11:18.552Z,77.5
2019-02-11T04:21:21.984Z,78.3
2019-02-11T04:31:25.415Z,77.1
2019-02-11T04:41:29.877Z,78.4
2019-02-11T04:51:33.326Z,78.2
2019-02-11T05:01:36.731Z,78
2019-02-11T05:11:40.163Z,79.6
2019-02-11T05:21:43.604Z,78.5
2019-02-11T05:31:47.046Z,78.7
2019-02-11T05:41:50.505Z,77.1
2019-02-11T05:51:53.951Z,76.4
2019-02-11T06:01:57.405Z,76.4
2019-02-11T06:12:00.835Z,76
2019-02-11T06:22:04.262Z,76
2019-02-11T06:32:07.739Z,75.8
2019-02-11T06:42:11.170Z,75.5
2019-02-11T06:52:14.633Z,75.3
2019-02-11T07:02:18.051Z,75.5
2019-02-11T07:12:21.511Z,75.3
2019-02-11T07:22:24.906Z,74.2
2019-02-11T07:32:28.303Z,76.1
2019-02-11T07:42:31.711Z,76
2019-02-11T07:52:35.120Z,76.2
2019-02-11T08:02:38.567Z,76
2019-02-11T08:12:42.002Z,76.2
2019-02-11T08:22:45.427Z,76.2
2019-02-11T08:32:48.880Z,76.6
2019-02-11T08:42:52.286Z,73.3
2019-02-11T08:52:55.698Z,73.8
2019-02-11T09:02:59.161Z,72.4
2019-02-11T09:13:02.610Z,72.5
2019-02-11T09:23:06.027Z,72.7
2019-02-11T09:33:09.449Z,71.7
2019-02-11T09:43:12.891Z,71.4
2019-02-11T09:53:16.316Z,71.1
2019-02-11T10:03:19.771Z,71.3
2019-02-11T10:13:23.205Z,72.3
2019-02-11T10:23:26.635Z,70.1
2019-02-11T10:33:30.083Z,36.3
2019-02-11T10:43:33.573Z,72.3
2019-02-11T10:53:37.029Z,68.3
2019-02-11T11:03:40.459Z,67.1
2019-02-11T11:13:43.918Z,66.2
2019-02-11T11:23:47.334Z,66.9
2019-02-11T11:33:50.764Z,63.3
2019-02-11T11:43:54.219Z,64.9
2019-02-11T11:53:57.665Z,65.1
2019-02-11T12:04:06.147Z,60.5
2019-02-11T12:14:10.466Z,65
2019-02-11T12:24:13.949Z,65.4
2019-02-11T12:34:17.391Z,67.7
2019-02-11T12:44:20.915Z,67.2
2019-02-11T12:54:24.544Z,65.2
2019-02-11T13:04:28.224Z,63.4
2019-02-11T13:14:31.725Z,62.8
2019-02-11T13:24:35.232Z,63.4
2019-02-11T13:34:38.764Z,63
2019-02-11T13:44:42.270Z,63.2
2019-02-11T13:54:45.743Z,61.9
2019-02-11T14:04:49.244Z,62
2019-02-11T14:14:52.779Z,62.4
2019-02-11T14:24:56.316Z,60.2
2019-02-11T14:34:59.833Z,58.7
2019-02-11T14:45:03.399Z,59.5
2019-02-11T14:55:06.910Z,61.7
2019-02-11T15:05:10.390Z,62.3
2019-02-11T15:15:13.810Z,63.5
2019-02-11T15:25:17.259Z,62.9
2019-02-11T15:35:20.737Z,63.1
2019-02-11T15:45:24.227Z,63.8
2019-02-11T15:55:27.683Z,65.9
2019-02-11T16:05:31.150Z,66.9
2019-02-11T16:15:34.574Z,67.2
2019-02-11T16:25:38.036Z,66.7
2019-02-11T16:35:41.459Z,68.6
2019-02-11T16:45:44.868Z,66.5
2019-02-11T16:55:48.314Z,66.9
2019-02-11T17:05:51.856Z,67.5
2019-02-11T17:15:55.275Z,67.1
2019-02-11T17:25:58.723Z,65.9
2019-02-11T17:36:02.155Z,67.9
2019-02-11T17:46:05.590Z,69.3
2019-02-11T17:56:09.059Z,70.3
2019-02-11T18:06:12.499Z,70.3
2019-02-11T18:16:15.930Z,71.3
2019-02-11T18:26:19.370Z,71
2019-02-11T18:36:22.814Z,72
2019-02-11T18:46:26.268Z,72.4
2019-02-11T18:56:29.740Z,72.1
2019-02-11T19:06:33.190Z,71.8
2019-02-11T19:16:36.748Z,71.9
2019-02-11T19:26:40.231Z,71.8
2019-02-11T19:36:43.699Z,71.6
2019-02-11T19:46:47.166Z,72.2
2019-02-11T19:56:50.641Z,71.9
2019-02-11T20:06:54.079Z,72.9
2019-02-11T20:16:57.509Z,72.6
2019-02-11T20:27:00.966Z,73.1
2019-02-11T20:37:04.420Z,72.8
2019-02-11T20:47:07.811Z,72.6
2019-02-11T20:57:11.228Z,72.6
2019-02-11T21:07:14.683Z,72.2
2019-02-11T21:17:18.128Z,72.6
2019-02-11T21:27:21.538Z,72.7
2019-02-11T21:37:24.976Z,72.8
2019-02-11T21:47:28.385Z,73.2
2019-02-11T21:57:31.796Z,72.9
2019-02-11T22:07:35.238Z,73.2
2019-02-11T22:17:38.681Z,73
2019-02-11T22:27:42.161Z,73.6
2019-02-11T22:37:45.619Z,74.1
2019-02-11T22:47:49.085Z,74.4
2019-02-11T22:57:52.520Z,74.6
2019-02-11T23:07:55.968Z,75.1
2019-02-11T23:17:59.415Z,74.6
2019-02-11T23:28:02.850Z,74.5
2019-02-11T23:38:06.278Z,74.8
2019-02-11T23:48:09.705Z,75
2019-02-11T23:58:13.139Z,75.6
